Time;durP1;ratioP1;P1;durP2;ratioP2;P2;SDS_P1;SDS_P2;PMS_P1;PMS_P2;Temp;Humidity;BMP_temperature;BMP_pressure;BME280_temperature;BME280_humidity;BME280_pressure;Samples;Min_cycle;Max_cycle;Signal;HPM_P1;HPM_P2
2022/08/08 00:01:55;;;;;;;;;;;;;;;27.56;37.33;100508.44;5002633;28;1022;-36
2022/08/08 00:04:23;;;;;;;;;;;;;;;27.46;37.40;100507.94;5007275;28;1049;-36
2022/08/08 00:07:12;;;;;;;;;;;;;;;27.48;37.54;100513.97;5008479;28;1003;-36
2022/08/08 00:09:37;;;;;;;;;;;;;;;27.57;37.27;100520.09;5002781;28;1258;-37
2022/08/08 00:12:03;;;;;;;;;;;;;;;27.43;37.19;100517.25;5011157;28;1010;-37
2022/08/08 00:14:28;;;;;;;;;;;;;;;27.54;37.42;100520.50;5028471;28;1176;-37
2022/08/08 00:16:55;;;;;;;;;;;;;;;27.50;37.42;100520.88;5011479;28;1002;-37
2022/08/08 00:19:20;;;;;;;;;;;;;;;27.51;36.96;100527.94;5028323;28;1184;-37
2022/08/08 00:21:50;;;;;;;;;;;;;;;27.62;37.22;100523.06;5006607;28;924;-37
2022/08/08 00:24:16;;;;;;;;;;;;;;;27.47;37.25;100532.06;5024116;28;2696;-38
2022/08/08 00:26:42;;;;;;;;;;;;;;;27.49;37.55;100531.88;5009868;28;1113;-36
2022/08/08 00:29:10;;;;;;;;;;;;;;;27.50;37.13;100533.53;5004820;28;1906;-37
2022/08/08 00:31:38;;;;;;;;;;;;;;;27.38;37.46;100531.34;5025250;28;1166;-37
2022/08/08 00:36:55;;;;;;;;;;;;;;;27.68;37.42;100525.03;5012824;28;967;-34
2022/08/08 00:39:25;;;;;;;;;;;;;;;27.73;37.66;100532.56;5027294;28;1061;-37
2022/08/08 00:41:50;;;;;;;;;;;;;;;27.76;36.91;100521.34;5002700;28;1276;-37
2022/08/08 00:44:41;;;;;;;;;;;;;;;27.55;37.03;100533.81;5000314;28;956;-35
2022/08/08 00:47:26;;;;;;;;;;;;;;;27.57;37.16;100529.06;5005423;28;1960;-35
2022/08/08 00:50:02;;;;;;;;;;;;;;;27.43;37.25;100516.41;5006254;28;1027;-35
2022/08/08 00:52:48;;;;;;;;;;;;;;;27.47;37.61;100531.22;4990036;28;2432;-36
2022/08/08 00:55:32;;;;;;;;;;;;;;;27.49;38.01;100532.69;5006648;28;1670;-36
2022/08/08 00:58:03;;;;;;;;;;;;;;;27.46;38.08;100534.97;5005315;28;856;-35
2022/08/08 01:00:29;;;;;;;;;;;;;;;27.60;38.11;100535.94;5013858;28;975;-35
2022/08/08 01:03:07;;;;;;;;;;;;;;;27.45;37.87;100536.81;4989696;28;1151;-35
2022/08/08 01:05:44;;;;;;;;;;;;;;;27.57;37.91;100526.34;5003447;28;979;-35
2022/08/08 01:08:09;;;;;;;;;;;;;;;27.53;38.07;100518.84;5003510;28;1968;-35
2022/08/08 01:10:41;;;;;;;;;;;;;;;27.43;37.71;100511.84;5012206;28;1221;-35
2022/08/08 01:13:14;;;;;;;;;;;;;;;27.61;38.14;100521.41;5001222;28;1549;-35
2022/08/08 01:15:51;;;;;;;;;;;;;;;27.49;38.26;100521.88;5026632;28;978;-35
2022/08/08 01:18:20;;;;;;;;;;;;;;;27.55;38.78;100528.41;5000169;28;1059;-35
2022/08/08 01:21:06;;;;;;;;;;;;;;;27.69;37.88;100520.47;5011360;28;1049;-35
2022/08/08 01:23:34;;;;;;;;;;;;;;;27.35;38.54;100529.03;5026774;28;2498;-35
2022/08/08 01:26:06;;;;;;;;;;;;;;;27.59;38.23;100520.75;5004696;28;1049;-35
2022/08/08 01:28:40;;;;;;;;;;;;;;;27.51;37.88;100525.25;5001117;28;1902;-35
2022/08/08 01:31:25;;;;;;;;;;;;;;;27.54;38.17;100528.59;5007866;28;979;-35
2022/08/08 01:34:08;;;;;;;;;;;;;;;27.60;38.39;100525.97;5001279;28;888;-35
2022/08/08 01:36:40;;;;;;;;;;;;;;;27.38;38.42;100528.63;5004374;28;1193;-35
2022/08/08 01:39:24;;;;;;;;;;;;;;;27.58;38.90;100528.00;5008935;28;967;-35
2022/08/08 01:41:51;;;;;;;;;;;;;;;27.43;39.07;100521.81;4999238;28;1153;-35
2022/08/08 01:44:36;;;;;;;;;;;;;;;27.64;38.44;100521.03;5026849;28;966;-35
2022/08/08 01:47:20;;;;;;;;;;;;;;;27.70;37.89;100525.69;5003756;28;1216;-35
2022/08/08 01:49:57;;;;;;;;;;;;;;;27.44;38.80;100532.47;5008827;28;1071;-35
2022/08/08 01:52:28;;;;;;;;;;;;;;;27.61;38.45;100530.34;4987256;28;2389;-35
2022/08/08 01:55:12;;;;;;;;;;;;;;;27.57;38.50;100526.34;5004232;28;975;-35
2022/08/08 01:57:49;;;;;;;;;;;;;;;27.66;38.41;100527.03;5011046;28;1299;-35
2022/08/08 02:00:19;;;;;;;;;;;;;;;27.58;38.51;100522.63;5003095;28;1042;-36
2022/08/08 02:02:56;;;;;;;;;;;;;;;27.45;38.52;100520.63;5024741;28;1149;-35
2022/08/08 02:05:30;;;;;;;;;;;;;;;27.58;38.99;100524.47;5005053;28;1039;-35
2022/08/08 02:08:07;;;;;;;;;;;;;;;27.38;39.15;100530.50;5004078;28;1967;-35
2022/08/08 02:10:42;;;;;;;;;;;;;;;27.63;40.13;100524.72;5019501;28;1176;-35
2022/08/08 02:13:21;;;;;;;;;;;;;;;27.51;39.13;100522.53;4998677;28;960;-35
2022/08/08 02:16:04;;;;;;;;;;;;;;;27.47;39.69;100537.47;4999246;28;1172;-37
2022/08/08 02:18:50;;;;;;;;;;;;;;;27.55;38.87;100532.97;5007331;28;947;-37
2022/08/08 02:24:03;;;;;;;;;;;;;;;27.51;38.86;100544.16;5009313;28;2330;-37
2022/08/08 02:26:33;;;;;;;;;;;;;;;27.39;39.01;100546.50;5004933;28;1224;-37
2022/08/08 02:29:16;;;;;;;;;;;;;;;27.39;40.10;100543.00;5000986;28;1966;-37
2022/08/08 02:32:01;;;;;;;;;;;;;;;27.38;39.57;100544.00;5012243;28;1208;-37
2022/08/08 02:34:45;;;;;;;;;;;;;;;27.48;39.38;100549.09;4999770;28;912;-38
2022/08/08 02:37:29;;;;;;;;;;;;;;;27.57;39.13;100549.81;5005961;28;1054;-37
2022/08/08 02:40:14;;;;;;;;;;;;;;;27.40;39.68;100541.94;5016923;28;932;-37
2022/08/08 02:43:03;;;;;;;;;;;;;;;27.55;39.74;100538.38;4965496;28;1137;-37
2022/08/08 02:45:34;;;;;;;;;;;;;;;27.48;38.90;100539.13;5004564;28;1267;-35
2022/08/08 02:47:59;;;;;;;;;;;;;;;27.65;39.13;100546.16;5003898;28;1948;-35
2022/08/08 02:50:43;;;;;;;;;;;;;;;27.40;39.42;100541.94;5004512;28;1177;-35
2022/08/08 02:53:17;;;;;;;;;;;;;;;27.59;39.28;100548.59;5002590;28;2306;-36
2022/08/08 02:56:02;;;;;;;;;;;;;;;27.50;39.67;100549.75;5014181;28;979;-36
2022/08/08 02:58:37;;;;;;;;;;;;;;;27.49;39.73;100543.50;5006536;28;959;-36
2022/08/08 03:01:05;;;;;;;;;;;;;;;27.54;39.61;100550.22;5003561;28;1196;-36
2022/08/08 03:03:49;;;;;;;;;;;;;;;27.38;39.50;100549.41;5008862;28;1030;-36
2022/08/08 03:06:33;;;;;;;;;;;;;;;27.56;39.68;100550.88;4998895;28;1030;-36
2022/08/08 03:09:13;;;;;;;;;;;;;;;27.36;39.68;100557.69;4998807;28;1956;-35
2022/08/08 03:11:57;;;;;;;;;;;;;;;27.48;39.67;100552.66;4997014;28;1082;-36
2022/08/08 03:14:30;;;;;;;;;;;;;;;27.41;39.72;100559.81;5006828;28;952;-36
2022/08/08 03:16:58;;;;;;;;;;;;;;;27.39;40.44;100560.00;4991120;28;1015;-35
2022/08/08 03:19:42;;;;;;;;;;;;;;;27.42;40.08;100564.22;5007351;28;1053;-35
2022/08/08 03:22:07;;;;;;;;;;;;;;;27.33;39.89;100571.59;4997780;28;983;-36
2022/08/08 03:24:33;;;;;;;;;;;;;;;27.48;39.99;100576.09;5004633;28;2525;-36
2022/08/08 03:27:02;;;;;;;;;;;;;;;27.32;39.76;100577.19;4987729;28;983;-36
2022/08/08 03:29:29;;;;;;;;;;;;;;;27.55;40.26;100577.03;5029002;28;1981;-36
2022/08/08 03:34:38;;;;;;;;;;;;;;;27.46;39.22;100583.59;5002836;28;1022;-36
2022/08/08 03:37:04;;;;;;;;;;;;;;;27.48;39.53;100581.50;4989305;28;1554;-36
2022/08/08 03:39:29;;;;;;;;;;;;;;;27.57;39.60;100584.94;5010625;28;951;-36
2022/08/08 03:41:54;;;;;;;;;;;;;;;27.02;42.62;100584.28;5006806;28;1220;-35
2022/08/08 03:44:20;;;;;;;;;;;;;;;27.01;43.68;100582.59;5015762;28;979;-35
2022/08/08 03:46:45;;;;;;;;;;;;;;;27.08;43.67;100593.50;5011578;28;1168;-36
2022/08/08 03:49:37;;;;;;;;;;;;;;;27.34;41.48;100599.44;4999466;28;1898;-36
2022/08/08 03:52:02;;;;;;;;;;;;;;;27.22;41.32;100589.13;5008221;28;1228;-36
2022/08/08 03:54:27;;;;;;;;;;;;;;;27.50;41.96;100601.06;5007380;28;2587;-39
2022/08/08 03:56:53;;;;;;;;;;;;;;;27.90;41.34;100597.16;5006498;28;1145;-39
2022/08/08 03:59:18;;;;;;;;;;;;;;;27.85;41.32;100598.59;5018676;28;1168;-37
2022/08/08 04:01:43;;;;;;;;;;;;;;;27.66;40.79;100604.59;5031068;28;998;-36
2022/08/08 04:04:09;;;;;;;;;;;;;;;27.28;42.69;100595.63;5016129;28;1129;-37
2022/08/08 04:06:34;;;;;;;;;;;;;;;27.38;42.72;100604.28;5015770;28;1089;-37
2022/08/08 04:09:00;;;;;;;;;;;;;;;27.61;41.85;100600.59;5015443;28;1898;-36
2022/08/08 04:11:25;;;;;;;;;;;;;;;27.45;40.85;100600.81;5008323;28;990;-37
2022/08/08 04:13:51;;;;;;;;;;;;;;;27.51;40.75;100600.88;5014901;28;978;-37
2022/08/08 04:16:17;;;;;;;;;;;;;;;27.65;41.37;100601.03;5015712;28;1050;-37
2022/08/08 04:18:42;;;;;;;;;;;;;;;27.81;40.46;100594.59;5015394;28;1058;-37
2022/08/08 04:21:07;;;;;;;;;;;;;;;27.73;40.35;100605.53;5002919;28;998;-37
2022/08/08 04:23:33;;;;;;;;;;;;;;;27.65;40.57;100594.78;5008655;28;1787;-37
2022/08/08 04:25:58;;;;;;;;;;;;;;;27.74;40.95;100602.63;5015371;28;975;-37
2022/08/08 04:28:23;;;;;;;;;;;;;;;27.90;40.54;100605.28;5015634;28;1973;-37
2022/08/08 04:30:48;;;;;;;;;;;;;;;27.73;40.82;100598.25;5013475;28;1221;-37
2022/08/08 04:33:14;;;;;;;;;;;;;;;27.65;41.11;100598.34;5012847;28;987;-37
2022/08/08 04:35:39;;;;;;;;;;;;;;;27.90;40.74;100592.63;5009847;28;789;-37
2022/08/08 04:38:04;;;;;;;;;;;;;;;27.97;40.38;100601.63;5011310;28;995;-37
2022/08/08 04:40:30;;;;;;;;;;;;;;;27.96;40.25;100596.44;5014598;28;1025;-37
2022/08/08 04:42:55;;;;;;;;;;;;;;;27.87;41.02;100603.81;5014406;28;1002;-37
2022/08/08 04:45:21;;;;;;;;;;;;;;;27.82;41.23;100608.94;5004857;28;983;-37
2022/08/08 04:47:46;;;;;;;;;;;;;;;27.68;41.28;100608.81;5010247;28;1961;-37
2022/08/08 04:50:11;;;;;;;;;;;;;;;27.61;41.66;100606.00;5014853;28;1239;-37
2022/08/08 04:52:36;;;;;;;;;;;;;;;27.59;41.45;100608.03;5014962;28;1788;-37
2022/08/08 04:55:02;;;;;;;;;;;;;;;27.94;41.40;100602.03;5018028;28;1168;-38
2022/08/08 04:57:27;;;;;;;;;;;;;;;28.16;40.49;100614.72;5006421;28;1215;-39
2022/08/08 04:59:53;;;;;;;;;;;;;;;28.18;39.70;100604.50;5012475;28;921;-38
2022/08/08 05:02:18;;;;;;;;;;;;;;;28.26;39.24;100620.59;5011980;28;1172;-39
2022/08/08 05:04:43;;;;;;;;;;;;;;;28.36;40.05;100623.03;5018168;28;936;-39
2022/08/08 05:07:09;;;;;;;;;;;;;;;28.41;38.94;100625.16;5017397;28;1050;-39
2022/08/08 05:09:34;;;;;;;;;;;;;;;28.41;38.60;100620.56;5017242;28;1906;-39
2022/08/08 05:12:00;;;;;;;;;;;;;;;28.42;38.65;100618.69;5015904;28;850;-39
2022/08/08 05:14:26;;;;;;;;;;;;;;;28.43;38.23;100620.38;5017553;28;1117;-39
2022/08/08 05:16:51;;;;;;;;;;;;;;;28.51;39.86;100622.13;5011858;28;978;-39
2022/08/08 05:19:16;;;;;;;;;;;;;;;28.46;39.22;100631.63;5013288;28;1027;-39
2022/08/08 05:21:42;;;;;;;;;;;;;;;28.50;38.19;100634.78;5012068;28;1053;-39
2022/08/08 05:24:07;;;;;;;;;;;;;;;28.56;38.19;100638.59;5016577;28;1912;-39
2022/08/08 05:26:33;;;;;;;;;;;;;;;28.53;38.29;100630.88;5017314;28;1121;-37
2022/08/08 05:28:58;;;;;;;;;;;;;;;28.54;38.32;100637.94;5017001;28;1960;-38
2022/08/08 05:31:23;;;;;;;;;;;;;;;28.52;38.37;100637.31;5016964;28;1006;-37
2022/08/08 05:33:49;;;;;;;;;;;;;;;28.62;38.42;100623.44;5009634;28;960;-39
2022/08/08 05:36:14;;;;;;;;;;;;;;;28.65;38.95;100634.72;5030364;28;1114;-37
2022/08/08 05:38:42;;;;;;;;;;;;;;;28.60;38.81;100640.72;5016745;28;1015;-37
2022/08/08 05:41:08;;;;;;;;;;;;;;;28.65;38.59;100642.81;5016277;28;959;-36
2022/08/08 05:43:34;;;;;;;;;;;;;;;28.71;38.62;100642.03;5030274;28;1152;-36
2022/08/08 05:46:00;;;;;;;;;;;;;;;28.92;38.92;100644.91;5008002;28;967;-36
2022/08/08 05:48:25;;;;;;;;;;;;;;;28.96;39.22;100649.72;5016891;28;1894;-36
2022/08/08 05:50:51;;;;;;;;;;;;;;;28.94;38.13;100654.50;5017033;28;1042;-35
2022/08/08 05:53:16;;;;;;;;;;;;;;;28.93;38.45;100647.41;5016516;28;1894;-36
2022/08/08 05:55:42;;;;;;;;;;;;;;;28.86;38.82;100654.66;5015065;28;1034;-36
2022/08/08 05:58:08;;;;;;;;;;;;;;;28.95;38.97;100661.59;5021158;28;951;-35
2022/08/08 06:00:33;;;;;;;;;;;;;;;29.19;39.27;100654.06;5013902;28;1195;-37
2022/08/08 06:03:11;;;;;;;;;;;;;;;29.21;39.24;100656.56;5005095;28;1003;-37
2022/08/08 06:05:44;;;;;;;;;;;;;;;29.06;39.20;100671.06;5015913;28;1410;-36
2022/08/08 06:08:12;;;;;;;;;;;;;;;29.18;39.62;100668.63;5016967;28;1949;-37
2022/08/08 06:10:37;;;;;;;;;;;;;;;29.26;39.47;100664.91;5010476;28;975;-36
2022/08/08 06:13:02;;;;;;;;;;;;;;;29.18;40.91;100673.19;5016361;28;1058;-37
2022/08/08 06:15:28;;;;;;;;;;;;;;;29.27;40.18;100669.31;5008200;28;978;-42
2022/08/08 06:17:54;;;;;;;;;;;;;;;29.11;39.47;100684.03;4989523;28;972;-43
2022/08/08 06:20:19;;;;;;;;;;;;;;;29.14;40.56;100686.31;5007070;28;1138;-41
2022/08/08 06:22:44;;;;;;;;;;;;;;;29.24;39.31;100687.84;5012916;28;1755;-40
2022/08/08 06:25:10;;;;;;;;;;;;;;;29.16;38.98;100689.66;5015686;28;1078;-39
2022/08/08 06:27:45;;;;;;;;;;;;;;;29.32;39.89;100693.94;5016422;28;1915;-40
2022/08/08 06:30:11;;;;;;;;;;;;;;;29.20;39.73;100688.22;5011576;28;1148;-40
2022/08/08 06:32:40;;;;;;;;;;;;;;;29.18;39.89;100697.56;5013944;28;1181;-39
2022/08/08 06:35:09;;;;;;;;;;;;;;;29.30;40.20;100697.88;5005458;28;1160;-40
2022/08/08 06:37:35;;;;;;;;;;;;;;;29.32;39.80;100701.22;5022676;28;1081;-40
2022/08/08 06:40:02;;;;;;;;;;;;;;;29.39;39.17;100685.00;5014945;28;1425;-40
2022/08/08 06:42:28;;;;;;;;;;;;;;;29.23;39.28;100703.25;5028807;28;1168;-40
2022/08/08 06:44:53;;;;;;;;;;;;;;;29.52;39.48;100703.19;5015572;28;1283;-39
2022/08/08 06:47:19;;;;;;;;;;;;;;;29.43;39.25;100694.38;5030422;28;1235;-40
2022/08/08 06:49:46;;;;;;;;;;;;;;;29.39;39.16;100703.97;5017531;28;1894;-40
2022/08/08 06:52:11;;;;;;;;;;;;;;;29.40;39.70;100706.47;5009102;28;1039;-39
2022/08/08 06:54:36;;;;;;;;;;;;;;;29.61;39.39;100706.63;5005109;28;1767;-39
2022/08/08 06:57:02;;;;;;;;;;;;;;;29.62;39.56;100705.56;5002950;28;1196;-39
2022/08/08 06:59:27;;;;;;;;;;;;;;;29.69;39.40;100706.44;5015590;28;801;-39
2022/08/08 07:02:11;;;;;;;;;;;;;;;29.67;39.35;100709.38;5015469;28;1865;-39
2022/08/08 07:04:44;;;;;;;;;;;;;;;29.70;39.43;100700.81;4998777;28;946;-39
2022/08/08 07:07:09;;;;;;;;;;;;;;;29.73;38.78;100713.13;5015567;28;947;-38
2022/08/08 07:09:41;;;;;;;;;;;;;;;29.74;39.13;100709.41;5015064;28;1894;-39
2022/08/08 07:12:06;;;;;;;;;;;;;;;29.73;39.17;100709.59;5010371;28;891;-39
2022/08/08 07:14:41;;;;;;;;;;;;;;;29.82;39.25;100716.50;5011379;28;943;-38
2022/08/08 07:17:07;;;;;;;;;;;;;;;29.78;39.05;100705.22;5017828;28;951;-38
2022/08/08 07:19:33;;;;;;;;;;;;;;;29.81;38.94;100715.66;5015606;28;1018;-39
2022/08/08 07:22:05;;;;;;;;;;;;;;;29.78;38.95;100717.97;5015467;28;1183;-39
2022/08/08 07:24:33;;;;;;;;;;;;;;;29.88;39.24;100715.69;5012719;28;2165;-39
2022/08/08 07:26:59;;;;;;;;;;;;;;;29.82;38.99;100711.09;5002260;28;1168;-39
2022/08/08 07:29:25;;;;;;;;;;;;;;;29.88;39.25;100714.88;5014803;28;1986;-39
2022/08/08 07:31:50;;;;;;;;;;;;;;;29.89;39.21;100716.53;5015339;28;1102;-39
2022/08/08 07:34:16;;;;;;;;;;;;;;;29.87;38.82;100719.44;5014865;28;1002;-38
2022/08/08 07:36:41;;;;;;;;;;;;;;;30.07;39.40;100729.53;5005663;28;1220;-40
2022/08/08 07:39:07;;;;;;;;;;;;;;;30.16;38.83;100720.16;5015038;28;943;-38
2022/08/08 07:41:32;;;;;;;;;;;;;;;30.34;38.69;100723.38;5030189;28;1055;-39
2022/08/08 07:43:58;;;;;;;;;;;;;;;30.16;38.46;100725.56;5029586;28;1275;-39
2022/08/08 07:46:23;;;;;;;;;;;;;;;29.96;38.64;100721.97;5013821;28;1233;-39
2022/08/08 07:48:48;;;;;;;;;;;;;;;30.02;38.75;100721.16;5014132;28;1906;-39
2022/08/08 07:51:14;;;;;;;;;;;;;;;29.93;38.94;100712.34;5013647;28;1142;-38
2022/08/08 07:53:42;;;;;;;;;;;;;;;30.02;38.64;100719.28;5013711;28;1886;-39
2022/08/08 07:56:08;;;;;;;;;;;;;;;30.06;38.57;100725.16;5025253;28;1195;-38
2022/08/08 07:58:37;;;;;;;;;;;;;;;30.12;38.34;100724.34;5012432;28;1244;-38
2022/08/08 08:01:04;;;;;;;;;;;;;;;30.06;38.57;100715.13;5005036;28;1081;-39
2022/08/08 08:03:34;;;;;;;;;;;;;;;30.08;38.09;100720.34;5014874;28;1104;-38
2022/08/08 08:06:00;;;;;;;;;;;;;;;30.11;37.84;100716.41;5005520;28;1091;-38
2022/08/08 08:08:27;;;;;;;;;;;;;;;30.16;38.06;100722.06;5013174;28;1955;-38
2022/08/08 08:10:54;;;;;;;;;;;;;;;30.23;38.09;100722.09;5010346;28;1189;-39
2022/08/08 08:13:29;;;;;;;;;;;;;;;30.17;38.44;100724.56;5013167;28;933;-38
2022/08/08 08:16:03;;;;;;;;;;;;;;;30.14;37.88;100713.28;4995883;28;951;-39
2022/08/08 08:18:32;;;;;;;;;;;;;;;30.19;37.76;100722.47;5009218;28;1090;-38
2022/08/08 08:20:57;;;;;;;;;;;;;;;30.14;37.96;100719.53;5004291;28;1107;-39
2022/08/08 08:23:23;;;;;;;;;;;;;;;30.24;38.07;100721.03;5020465;28;1063;-39
2022/08/08 08:25:49;;;;;;;;;;;;;;;30.28;37.66;100717.72;5014116;28;1394;-38
2022/08/08 08:28:14;;;;;;;;;;;;;;;30.30;37.76;100721.06;5008938;28;1988;-39
2022/08/08 08:30:40;;;;;;;;;;;;;;;30.35;37.47;100723.16;5018298;28;915;-38
2022/08/08 08:33:05;;;;;;;;;;;;;;;30.33;37.74;100719.00;5018896;28;1110;-38
2022/08/08 08:35:31;;;;;;;;;;;;;;;30.30;37.47;100718.34;5017343;28;1049;-38
2022/08/08 08:37:56;;;;;;;;;;;;;;;30.36;37.75;100711.28;5014952;28;1196;-37
2022/08/08 08:40:21;;;;;;;;;;;;;;;30.47;37.60;100711.69;5018690;28;1003;-38
2022/08/08 08:42:47;;;;;;;;;;;;;;;30.40;37.12;100712.53;5031806;28;1137;-37
2022/08/08 08:45:12;;;;;;;;;;;;;;;30.38;36.94;100713.78;5011122;28;944;-39
2022/08/08 08:47:37;;;;;;;;;;;;;;;30.32;37.12;100718.13;5011045;28;1906;-38
2022/08/08 08:50:02;;;;;;;;;;;;;;;30.28;36.89;100712.28;5015663;28;955;-39
2022/08/08 08:52:28;;;;;;;;;;;;;;;30.25;36.87;100706.44;5018131;28;1832;-37
2022/08/08 08:54:53;;;;;;;;;;;;;;;29.28;38.62;100713.50;5015878;28;951;-38
2022/08/08 08:57:18;;;;;;;;;;;;;;;27.85;38.72;100709.44;5008004;28;1007;-38
2022/08/08 08:59:44;;;;;;;;;;;;;;;27.10;39.67;100704.84;5018069;28;943;-38
2022/08/08 09:02:15;;;;;;;;;;;;;;;27.21;39.52;100702.72;5014082;28;1105;-38
2022/08/08 09:04:40;;;;;;;;;;;;;;;26.94;40.12;100702.28;5012474;28;1031;-38
2022/08/08 09:07:06;;;;;;;;;;;;;;;26.87;40.15;100702.16;5010266;28;979;-38
2022/08/08 09:09:31;;;;;;;;;;;;;;;26.82;39.77;100701.88;5033244;28;1910;-38
2022/08/08 09:11:57;;;;;;;;;;;;;;;26.60;38.86;100685.53;5027013;28;1065;-38
2022/08/08 09:14:23;;;;;;;;;;;;;;;26.62;39.63;100692.44;5003778;28;1172;-38
2022/08/08 09:16:49;;;;;;;;;;;;;;;26.44;40.17;100689.19;5014457;28;1041;-39
2022/08/08 09:19:15;;;;;;;;;;;;;;;26.49;40.36;100684.91;5007120;28;1131;-38
2022/08/08 09:21:40;;;;;;;;;;;;;;;26.35;39.53;100685.69;5016520;28;983;-38
2022/08/08 09:24:05;;;;;;;;;;;;;;;26.29;39.32;100679.97;5030134;28;2052;-37
2022/08/08 09:26:34;;;;;;;;;;;;;;;26.17;39.37;100692.19;5015980;28;1304;-38
2022/08/08 09:29:00;;;;;;;;;;;;;;;26.19;40.19;100684.78;4999233;28;1910;-38
2022/08/08 09:31:37;;;;;;;;;;;;;;;26.34;39.59;100682.16;5015149;28;971;-36
2022/08/08 09:34:02;;;;;;;;;;;;;;;26.29;39.15;100690.75;5003905;28;955;-36
2022/08/08 09:36:28;;;;;;;;;;;;;;;26.13;40.14;100685.47;4983934;28;964;-37
2022/08/08 09:38:54;;;;;;;;;;;;;;;26.23;40.43;100680.69;5011865;28;1038;-38
2022/08/08 09:41:29;;;;;;;;;;;;;;;26.12;42.36;100683.81;5004198;28;1114;-39
2022/08/08 09:43:54;;;;;;;;;;;;;;;26.07;40.47;100678.09;5025349;28;1122;-37
2022/08/08 09:46:20;;;;;;;;;;;;;;;26.15;41.57;100684.28;5029353;28;1196;-38
2022/08/08 09:48:45;;;;;;;;;;;;;;;26.15;40.70;100683.44;5028073;28;1902;-38
2022/08/08 09:51:12;;;;;;;;;;;;;;;26.00;41.01;100672.59;5000412;28;1141;-38
2022/08/08 09:53:57;;;;;;;;;;;;;;;25.91;41.20;100683.41;4993264;28;2073;-38
2022/08/08 09:56:22;;;;;;;;;;;;;;;25.80;41.79;100665.78;5020745;28;1039;-37
2022/08/08 09:58:52;;;;;;;;;;;;;;;25.91;41.14;100678.00;5012214;28;955;-38
2022/08/08 10:01:19;;;;;;;;;;;;;;;25.84;41.40;100677.03;5010285;28;1213;-38
2022/08/08 10:03:45;;;;;;;;;;;;;;;25.85;41.38;100669.78;5016586;28;1011;-38
2022/08/08 10:06:17;;;;;;;;;;;;;;;25.56;41.99;100664.84;5015703;28;1110;-38
2022/08/08 10:08:46;;;;;;;;;;;;;;;25.58;41.90;100666.50;5016270;28;1975;-38
2022/08/08 10:11:11;;;;;;;;;;;;;;;25.72;41.14;100673.91;5016486;28;1057;-38
2022/08/08 10:13:37;;;;;;;;;;;;;;;25.60;41.32;100667.19;5013764;28;896;-37
2022/08/08 10:16:02;;;;;;;;;;;;;;;25.66;40.35;100663.81;5016893;28;990;-38
2022/08/08 10:18:28;;;;;;;;;;;;;;;25.70;40.64;100667.84;5015920;28;1034;-38
2022/08/08 10:20:57;;;;;;;;;;;;;;;25.77;39.17;100652.69;5006091;28;927;-38
2022/08/08 10:23:42;;;;;;;;;;;;;;;25.58;40.47;100647.66;5015444;28;1877;-38
2022/08/08 10:26:09;;;;;;;;;;;;;;;25.73;39.26;100654.03;5016549;28;871;-38
2022/08/08 10:28:35;;;;;;;;;;;;;;;25.67;39.65;100660.13;5003324;28;1894;-38
2022/08/08 10:32:30;;;;;;;;;;;;;;;25.63;39.97;100659.63;5014697;28;1017;-39
2022/08/08 10:33:45;;;;;;;;;;;;;;;25.54;40.20;100668.75;5011982;28;721;-38
2022/08/08 10:36:11;;;;;;;;;;;;;;;25.51;40.59;100651.06;5031571;28;1036;-38
2022/08/08 10:38:36;;;;;;;;;;;;;;;25.43;39.93;100651.09;5027379;28;968;-39
2022/08/08 10:41:03;;;;;;;;;;;;;;;25.42;40.75;100649.41;5031100;28;982;-39
2022/08/08 10:43:38;;;;;;;;;;;;;;;25.53;40.57;100651.72;5016168;28;1086;-39
2022/08/08 10:46:03;;;;;;;;;;;;;;;25.48;38.85;100647.88;5016077;28;990;-39
2022/08/08 10:48:32;;;;;;;;;;;;;;;25.48;39.38;100650.56;5010083;28;1899;-42
2022/08/08 10:50:57;;;;;;;;;;;;;;;25.68;38.96;100661.78;5006980;28;1295;-39
2022/08/08 10:53:32;;;;;;;;;;;;;;;25.52;39.75;100646.53;5009995;28;1783;-40
2022/08/08 10:55:57;;;;;;;;;;;;;;;25.30;40.91;100644.41;5013228;28;1114;-40
2022/08/08 10:58:26;;;;;;;;;;;;;;;25.19;41.17;100644.78;5014827;28;1346;-40
2022/08/08 11:00:51;;;;;;;;;;;;;;;25.06;41.89;100635.38;5010625;28;1283;-39
2022/08/08 11:03:19;;;;;;;;;;;;;;;25.06;41.85;100626.47;4999534;28;1370;-40
2022/08/08 11:05:48;;;;;;;;;;;;;;;24.99;42.38;100637.06;5014978;28;1256;-39
2022/08/08 11:08:20;;;;;;;;;;;;;;;25.12;45.26;100651.88;5014810;28;1953;-40
2022/08/08 11:10:45;;;;;;;;;;;;;;;26.44;40.32;100632.53;5012320;28;1342;-40
2022/08/08 11:13:17;;;;;;;;;;;;;;;26.09;40.12;100641.84;5014377;28;1255;-41
2022/08/08 11:15:42;;;;;;;;;;;;;;;25.66;41.33;100631.50;5014706;28;1165;-42
2022/08/08 11:18:08;;;;;;;;;;;;;;;25.21;42.58;100626.59;5013786;28;1271;-42
2022/08/08 11:20:33;;;;;;;;;;;;;;;25.12;43.28;100625.78;5014814;28;1296;-43
2022/08/08 11:22:59;;;;;;;;;;;;;;;25.14;43.45;100637.22;5010337;28;1832;-43
2022/08/08 11:25:28;;;;;;;;;;;;;;;26.12;43.03;100640.66;5001068;28;900;-41
2022/08/08 11:27:54;;;;;;;;;;;;;;;26.50;41.99;100643.44;4999686;28;1902;-39
2022/08/08 11:30:19;;;;;;;;;;;;;;;25.70;43.20;100631.97;5012532;28;1220;-40
2022/08/08 11:32:44;;;;;;;;;;;;;;;25.43;43.84;100634.94;5029755;28;1156;-40
2022/08/08 11:35:10;;;;;;;;;;;;;;;25.27;44.24;100636.69;5013166;28;1255;-41
2022/08/08 11:37:36;;;;;;;;;;;;;;;25.16;44.57;100643.25;5013109;28;1197;-41
2022/08/08 11:40:02;;;;;;;;;;;;;;;25.59;46.03;100636.72;5015535;28;1205;-41
2022/08/08 11:42:28;;;;;;;;;;;;;;;26.62;43.51;100634.91;5013789;28;1209;-41
2022/08/08 11:44:56;;;;;;;;;;;;;;;25.71;42.62;100637.19;5029985;28;1200;-40
2022/08/08 11:47:22;;;;;;;;;;;;;;;25.18;46.37;100654.72;4999922;28;1075;-40
2022/08/08 11:49:50;;;;;;;;;;;;;;;26.26;43.30;100629.09;5004173;28;1973;-40
2022/08/08 11:52:15;;;;;;;;;;;;;;;26.27;42.52;100628.09;5029711;28;1068;-39
2022/08/08 11:54:42;;;;;;;;;;;;;;;25.56;43.70;100628.97;5013157;28;1946;-40
2022/08/08 11:57:11;;;;;;;;;;;;;;;25.30;45.63;100619.34;5008630;28;1169;-40
2022/08/08 11:59:41;;;;;;;;;;;;;;;26.32;43.14;100621.31;5012393;28;1097;-40
2022/08/08 12:02:06;;;;;;;;;;;;;;;26.25;42.87;100626.59;5013728;28;1168;-40
2022/08/08 12:04:35;;;;;;;;;;;;;;;25.58;43.81;100626.97;5016685;28;1268;-40
2022/08/08 12:07:06;;;;;;;;;;;;;;;25.30;49.21;100613.94;5015608;28;1184;-40
2022/08/08 12:09:32;;;;;;;;;;;;;;;26.72;42.65;100616.63;5018383;28;1898;-40
2022/08/08 12:11:57;;;;;;;;;;;;;;;26.14;43.18;100617.06;5005951;28;1126;-40
2022/08/08 12:14:22;;;;;;;;;;;;;;;25.64;43.97;100610.13;4996772;28;846;-40
2022/08/08 12:16:51;;;;;;;;;;;;;;;25.38;44.35;100618.44;4999440;28;1062;-39
2022/08/08 12:19:16;;;;;;;;;;;;;;;25.53;47.39;100613.19;5005605;28;908;-40
2022/08/08 12:21:41;;;;;;;;;;;;;;;26.65;43.69;100613.81;5011684;28;986;-40
2022/08/08 12:24:07;;;;;;;;;;;;;;;25.86;44.62;100614.91;5008694;28;2302;-40
2022/08/08 12:26:40;;;;;;;;;;;;;;;25.50;44.94;100605.44;5006096;28;807;-40
2022/08/08 12:29:24;;;;;;;;;;;;;;;25.27;45.23;100612.47;5006317;28;1914;-40
2022/08/08 12:32:03;;;;;;;;;;;;;;;25.16;45.67;100615.50;5010376;28;1034;-40
2022/08/08 12:34:52;;;;;;;;;;;;;;;25.41;48.44;100618.94;5015318;28;1121;-39
2022/08/08 12:37:28;;;;;;;;;;;;;;;26.63;44.23;100620.41;4997942;28;1106;-40
2022/08/08 12:39:53;;;;;;;;;;;;;;;25.64;43.16;100622.78;5006388;28;1093;-40
2022/08/08 12:42:18;;;;;;;;;;;;;;;25.24;48.17;100611.97;5018601;28;1160;-41
2022/08/08 12:44:45;;;;;;;;;;;;;;;26.43;43.92;100614.66;5017981;28;1141;-41
2022/08/08 12:47:10;;;;;;;;;;;;;;;26.03;44.23;100613.78;5018240;28;1034;-39
2022/08/08 12:49:36;;;;;;;;;;;;;;;25.53;45.42;100621.25;5018284;28;1965;-41
2022/08/08 12:52:01;;;;;;;;;;;;;;;25.28;45.67;100607.88;5009334;28;983;-40
2022/08/08 12:54:34;;;;;;;;;;;;;;;25.12;46.07;100617.72;5018291;28;1902;-42
2022/08/08 12:57:10;;;;;;;;;;;;;;;25.07;46.41;100599.38;5005407;28;1002;-40
2022/08/08 12:59:49;;;;;;;;;;;;;;;26.07;45.56;100610.72;5011260;28;968;-38
2022/08/08 13:02:22;;;;;;;;;;;;;;;25.89;43.97;100601.88;5026612;28;954;-40
2022/08/08 13:04:48;;;;;;;;;;;;;;;25.14;44.20;100607.59;5017367;28;963;-40
2022/08/08 13:07:14;;;;;;;;;;;;;;;24.73;46.20;100608.50;5017910;28;963;-42
2022/08/08 13:09:40;;;;;;;;;;;;;;;25.77;46.32;100603.31;5014954;28;1901;-39